sensor_id;sensor_type;location;lat;lon;timestamp;P1;durP1;ratioP1;P2;durP2;ratioP2
79496;SDS011;75160;53.138;18.020;2024-02-26T00:00:23;31.50;;;18.10;;
79496;SDS011;75160;53.138;18.020;2024-02-26T00:01:45;34.00;;;18.10;;
79496;SDS011;75160;53.138;18.020;2024-02-26T00:02:47;33.50;;;19.30;;
79496;SDS011;75160;53.138;18.020;2024-02-26T00:03:49;37.80;;;19.80;;
79496;SDS011;75160;53.138;18.020;2024-02-26T00:04:51;33.70;;;19.20;;
79496;SDS011;75160;53.138;18.020;2024-02-26T00:05:53;34.60;;;19.20;;
79496;SDS011;75160;53.138;18.020;2024-02-26T00:06:56;36.30;;;20.10;;
79496;SDS011;75160;53.138;18.020;2024-02-26T00:07:59;33.10;;;18.70;;
79496;SDS011;75160;53.138;18.020;2024-02-26T00:09:01;33.40;;;19.50;;
79496;SDS011;75160;53.138;18.020;2024-02-26T00:10:04;33.10;;;19.00;;
79496;SDS011;75160;53.138;18.020;2024-02-26T00:11:06;35.90;;;20.10;;
79496;SDS011;75160;53.138;18.020;2024-02-26T00:12:08;35.00;;;19.60;;
79496;SDS011;75160;53.138;18.020;2024-02-26T00:13:10;33.20;;;19.60;;
79496;SDS011;75160;53.138;18.020;2024-02-26T00:14:12;33.10;;;19.00;;
79496;SDS011;75160;53.138;18.020;2024-02-26T00:15:14;32.70;;;17.30;;
79496;SDS011;75160;53.138;18.020;2024-02-26T00:16:15;34.30;;;18.20;;
79496;SDS011;75160;53.138;18.020;2024-02-26T00:17:17;36.30;;;18.50;;
79496;SDS011;75160;53.138;18.020;2024-02-26T00:18:19;34.10;;;18.40;;
79496;SDS011;75160;53.138;18.020;2024-02-26T00:19:21;32.30;;;17.70;;
79496;SDS011;75160;53.138;18.020;2024-02-26T00:20:22;36.00;;;19.90;;
79496;SDS011;75160;53.138;18.020;2024-02-26T00:21:24;32.70;;;18.40;;
79496;SDS011;75160;53.138;18.020;2024-02-26T00:22:26;30.30;;;18.80;;
79496;SDS011;75160;53.138;18.020;2024-02-26T00:23:28;34.10;;;18.70;;
79496;SDS011;75160;53.138;18.020;2024-02-26T00:24:30;33.50;;;18.90;;
79496;SDS011;75160;53.138;18.020;2024-02-26T00:25:32;30.50;;;18.40;;
79496;SDS011;75160;53.138;18.020;2024-02-26T00:26:34;31.90;;;18.30;;
79496;SDS011;75160;53.138;18.020;2024-02-26T00:27:35;30.30;;;18.10;;
79496;SDS011;75160;53.138;18.020;2024-02-26T00:28:37;33.50;;;17.60;;
79496;SDS011;75160;53.138;18.020;2024-02-26T00:29:39;32.90;;;18.00;;
79496;SDS011;75160;53.138;18.020;2024-02-26T00:30:41;33.70;;;19.10;;
79496;SDS011;75160;53.138;18.020;2024-02-26T00:31:43;35.20;;;18.50;;
79496;SDS011;75160;53.138;18.020;2024-02-26T00:32:45;36.70;;;19.20;;
79496;SDS011;75160;53.138;18.020;2024-02-26T00:33:46;37.60;;;20.70;;
79496;SDS011;75160;53.138;18.020;2024-02-26T00:34:48;30.40;;;17.30;;
79496;SDS011;75160;53.138;18.020;2024-02-26T00:35:50;29.90;;;17.30;;
79496;SDS011;75160;53.138;18.020;2024-02-26T00:36:52;33.50;;;17.90;;
79496;SDS011;75160;53.138;18.020;2024-02-26T00:37:53;33.40;;;19.60;;
79496;SDS011;75160;53.138;18.020;2024-02-26T00:38:55;34.40;;;19.10;;
79496;SDS011;75160;53.138;18.020;2024-02-26T00:39:57;34.50;;;19.10;;
79496;SDS011;75160;53.138;18.020;2024-02-26T00:40:59;32.50;;;19.30;;
79496;SDS011;75160;53.138;18.020;2024-02-26T00:42:00;35.30;;;18.70;;
79496;SDS011;75160;53.138;18.020;2024-02-26T00:43:03;35.70;;;19.90;;
79496;SDS011;75160;53.138;18.020;2024-02-26T00:44:05;36.10;;;20.00;;
79496;SDS011;75160;53.138;18.020;2024-02-26T00:45:07;32.60;;;18.60;;
79496;SDS011;75160;53.138;18.020;2024-02-26T00:46:09;37.30;;;20.40;;
79496;SDS011;75160;53.138;18.020;2024-02-26T00:47:10;33.50;;;19.00;;
79496;SDS011;75160;53.138;18.020;2024-02-26T00:48:12;34.10;;;19.50;;
79496;SDS011;75160;53.138;18.020;2024-02-26T00:49:15;38.00;;;21.00;;
79496;SDS011;75160;53.138;18.020;2024-02-26T00:50:17;38.00;;;20.60;;
79496;SDS011;75160;53.138;18.020;2024-02-26T00:51:19;36.60;;;19.80;;
79496;SDS011;75160;53.138;18.020;2024-02-26T00:52:20;33.60;;;19.70;;
79496;SDS011;75160;53.138;18.020;2024-02-26T00:53:22;34.70;;;20.20;;
79496;SDS011;75160;53.138;18.020;2024-02-26T00:54:26;35.60;;;20.50;;
79496;SDS011;75160;53.138;18.020;2024-02-26T00:55:28;33.10;;;19.50;;
79496;SDS011;75160;53.138;18.020;2024-02-26T00:56:29;37.30;;;19.70;;
79496;SDS011;75160;53.138;18.020;2024-02-26T00:57:31;31.70;;;20.00;;
79496;SDS011;75160;53.138;18.020;2024-02-26T00:58:33;36.90;;;18.70;;
79496;SDS011;75160;53.138;18.020;2024-02-26T00:59:35;35.60;;;20.40;;
79496;SDS011;75160;53.138;18.020;2024-02-26T01:00:37;33.90;;;20.60;;
79496;SDS011;75160;53.138;18.020;2024-02-26T01:01:38;38.30;;;20.50;;
79496;SDS011;75160;53.138;18.020;2024-02-26T01:02:41;36.50;;;19.30;;
79496;SDS011;75160;53.138;18.020;2024-02-26T01:03:43;40.00;;;21.70;;
79496;SDS011;75160;53.138;18.020;2024-02-26T01:04:45;35.00;;;19.40;;
79496;SDS011;75160;53.138;18.020;2024-02-26T01:05:46;36.60;;;19.40;;
79496;SDS011;75160;53.138;18.020;2024-02-26T01:06:48;37.80;;;21.70;;
79496;SDS011;75160;53.138;18.020;2024-02-26T01:07:50;35.20;;;19.30;;
79496;SDS011;75160;53.138;18.020;2024-02-26T01:08:52;37.60;;;20.00;;
79496;SDS011;75160;53.138;18.020;2024-02-26T01:09:54;34.10;;;19.90;;
79496;SDS011;75160;53.138;18.020;2024-02-26T01:10:56;36.60;;;20.60;;
79496;SDS011;75160;53.138;18.020;2024-02-26T01:11:57;35.40;;;20.00;;
79496;SDS011;75160;53.138;18.020;2024-02-26T01:13:00;35.50;;;20.40;;
79496;SDS011;75160;53.138;18.020;2024-02-26T01:14:03;35.60;;;20.50;;
79496;SDS011;75160;53.138;18.020;2024-02-26T01:15:05;36.30;;;19.90;;
79496;SDS011;75160;53.138;18.020;2024-02-26T01:16:07;37.70;;;20.60;;
79496;SDS011;75160;53.138;18.020;2024-02-26T01:17:09;37.80;;;20.40;;
79496;SDS011;75160;53.138;18.020;2024-02-26T01:18:11;39.10;;;20.90;;
79496;SDS011;75160;53.138;18.020;2024-02-26T01:19:13;32.60;;;19.10;;
79496;SDS011;75160;53.138;18.020;2024-02-26T01:20:15;35.70;;;20.40;;
79496;SDS011;75160;53.138;18.020;2024-02-26T01:21:17;36.30;;;20.60;;
79496;SDS011;75160;53.138;18.020;2024-02-26T01:22:19;35.60;;;19.20;;
79496;SDS011;75160;53.138;18.020;2024-02-26T01:23:21;37.10;;;19.30;;
79496;SDS011;75160;53.138;18.020;2024-02-26T01:24:23;34.30;;;19.70;;
79496;SDS011;75160;53.138;18.020;2024-02-26T01:25:25;34.20;;;18.40;;
79496;SDS011;75160;53.138;18.020;2024-02-26T01:26:26;38.00;;;19.80;;
79496;SDS011;75160;53.138;18.020;2024-02-26T01:27:28;35.00;;;20.40;;
79496;SDS011;75160;53.138;18.020;2024-02-26T01:28:30;34.80;;;19.70;;
79496;SDS011;75160;53.138;18.020;2024-02-26T01:29:32;36.80;;;20.60;;
79496;SDS011;75160;53.138;18.020;2024-02-26T01:30:33;36.60;;;21.30;;
79496;SDS011;75160;53.138;18.020;2024-02-26T01:31:38;39.30;;;19.60;;
79496;SDS011;75160;53.138;18.020;2024-02-26T01:32:40;37.50;;;20.40;;
79496;SDS011;75160;53.138;18.020;2024-02-26T01:33:42;31.50;;;19.60;;
79496;SDS011;75160;53.138;18.020;2024-02-26T01:34:43;36.90;;;19.30;;
79496;SDS011;75160;53.138;18.020;2024-02-26T01:35:45;38.60;;;20.30;;
79496;SDS011;75160;53.138;18.020;2024-02-26T01:36:48;38.50;;;20.00;;
79496;SDS011;75160;53.138;18.020;2024-02-26T01:37:50;36.90;;;20.80;;
79496;SDS011;75160;53.138;18.020;2024-02-26T01:38:52;38.00;;;19.90;;
79496;SDS011;75160;53.138;18.020;2024-02-26T01:39:54;36.00;;;18.60;;
79496;SDS011;75160;53.138;18.020;2024-02-26T01:40:56;37.10;;;20.10;;
79496;SDS011;75160;53.138;18.020;2024-02-26T01:41:57;33.30;;;19.30;;
79496;SDS011;75160;53.138;18.020;2024-02-26T01:42:59;35.30;;;19.10;;
79496;SDS011;75160;53.138;18.020;2024-02-26T01:44:02;33.50;;;18.80;;
79496;SDS011;75160;53.138;18.020;2024-02-26T01:45:05;34.50;;;19.70;;
79496;SDS011;75160;53.138;18.020;2024-02-26T01:46:11;35.50;;;19.50;;
79496;SDS011;75160;53.138;18.020;2024-02-26T01:47:15;38.50;;;19.60;;
79496;SDS011;75160;53.138;18.020;2024-02-26T01:48:17;38.60;;;20.40;;
79496;SDS011;75160;53.138;18.020;2024-02-26T01:49:19;37.30;;;20.30;;
79496;SDS011;75160;53.138;18.020;2024-02-26T01:50:22;39.30;;;20.70;;
79496;SDS011;75160;53.138;18.020;2024-02-26T01:51:25;35.40;;;20.30;;
79496;SDS011;75160;53.138;18.020;2024-02-26T01:52:27;33.80;;;18.70;;
79496;SDS011;75160;53.138;18.020;2024-02-26T01:53:29;35.30;;;19.50;;
79496;SDS011;75160;53.138;18.020;2024-02-26T01:54:34;36.60;;;20.20;;
79496;SDS011;75160;53.138;18.020;2024-02-26T01:55:38;35.10;;;19.70;;
79496;SDS011;75160;53.138;18.020;2024-02-26T01:56:41;34.80;;;19.30;;
79496;SDS011;75160;53.138;18.020;2024-02-26T01:57:45;34.60;;;20.20;;
79496;SDS011;75160;53.138;18.020;2024-02-26T01:58:49;35.90;;;20.40;;
79496;SDS011;75160;53.138;18.020;2024-02-26T01:59:51;35.40;;;19.40;;
79496;SDS011;75160;53.138;18.020;2024-02-26T02:00:53;33.00;;;18.80;;
79496;SDS011;75160;53.138;18.020;2024-02-26T02:01:57;35.00;;;19.70;;
79496;SDS011;75160;53.138;18.020;2024-02-26T02:03:03;33.60;;;18.10;;
79496;SDS011;75160;53.138;18.020;2024-02-26T02:04:08;35.50;;;20.70;;
79496;SDS011;75160;53.138;18.020;2024-02-26T02:05:11;41.30;;;22.60;;
79496;SDS011;75160;53.138;18.020;2024-02-26T02:06:14;41.00;;;22.10;;
79496;SDS011;75160;53.138;18.020;2024-02-26T02:07:18;39.00;;;20.70;;
79496;SDS011;75160;53.138;18.020;2024-02-26T02:08:21;35.60;;;19.30;;
79496;SDS011;75160;53.138;18.020;2024-02-26T02:09:25;34.80;;;20.10;;
79496;SDS011;75160;53.138;18.020;2024-02-26T02:10:28;38.50;;;21.30;;
79496;SDS011;75160;53.138;18.020;2024-02-26T02:11:30;35.00;;;18.70;;
79496;SDS011;75160;53.138;18.020;2024-02-26T02:12:33;42.00;;;21.40;;
79496;SDS011;75160;53.138;18.020;2024-02-26T02:13:35;37.70;;;20.70;;
79496;SDS011;75160;53.138;18.020;2024-02-26T02:14:38;40.60;;;21.40;;
79496;SDS011;75160;53.138;18.020;2024-02-26T02:15:39;38.30;;;20.10;;
79496;SDS011;75160;53.138;18.020;2024-02-26T02:16:41;35.80;;;19.70;;
79496;SDS011;75160;53.138;18.020;2024-02-26T02:17:43;36.60;;;22.10;;
79496;SDS011;75160;53.138;18.020;2024-02-26T02:18:45;41.50;;;21.40;;
79496;SDS011;75160;53.138;18.020;2024-02-26T02:19:47;37.30;;;22.10;;
79496;SDS011;75160;53.138;18.020;2024-02-26T02:20:49;39.00;;;21.40;;
79496;SDS011;75160;53.138;18.020;2024-02-26T02:21:50;37.30;;;21.10;;
79496;SDS011;75160;53.138;18.020;2024-02-26T02:22:52;38.40;;;21.60;;
79496;SDS011;75160;53.138;18.020;2024-02-26T02:23:54;38.60;;;21.30;;
79496;SDS011;75160;53.138;18.020;2024-02-26T02:24:56;41.50;;;21.60;;
79496;SDS011;75160;53.138;18.020;2024-02-26T02:25:58;38.70;;;20.90;;
79496;SDS011;75160;53.138;18.020;2024-02-26T02:27:01;39.90;;;21.90;;
79496;SDS011;75160;53.138;18.020;2024-02-26T02:28:03;39.20;;;22.60;;
79496;SDS011;75160;53.138;18.020;2024-02-26T02:29:06;36.60;;;21.40;;
79496;SDS011;75160;53.138;18.020;2024-02-26T02:30:11;40.30;;;21.80;;
79496;SDS011;75160;53.138;18.020;2024-02-26T02:31:14;34.20;;;20.70;;
79496;SDS011;75160;53.138;18.020;2024-02-26T02:32:16;36.60;;;20.60;;
79496;SDS011;75160;53.138;18.020;2024-02-26T02:33:19;34.20;;;20.00;;
79496;SDS011;75160;53.138;18.020;2024-02-26T02:34:22;37.60;;;20.50;;
79496;SDS011;75160;53.138;18.020;2024-02-26T02:35:24;34.90;;;19.40;;
79496;SDS011;75160;53.138;18.020;2024-02-26T02:36:26;40.20;;;20.60;;
79496;SDS011;75160;53.138;18.020;2024-02-26T02:37:28;34.90;;;20.30;;
79496;SDS011;75160;53.138;18.020;2024-02-26T02:38:30;36.30;;;21.80;;
79496;SDS011;75160;53.138;18.020;2024-02-26T02:39:33;39.00;;;20.00;;
79496;SDS011;75160;53.138;18.020;2024-02-26T02:40:34;37.50;;;21.50;;
79496;SDS011;75160;53.138;18.020;2024-02-26T02:41:36;38.30;;;20.00;;
79496;SDS011;75160;53.138;18.020;2024-02-26T02:42:38;34.40;;;20.00;;
79496;SDS011;75160;53.138;18.020;2024-02-26T02:43:40;35.20;;;20.10;;
79496;SDS011;75160;53.138;18.020;2024-02-26T02:44:41;36.40;;;20.80;;
79496;SDS011;75160;53.138;18.020;2024-02-26T02:45:43;35.60;;;20.70;;
79496;SDS011;75160;53.138;18.020;2024-02-26T02:46:45;40.70;;;21.60;;
79496;SDS011;75160;53.138;18.020;2024-02-26T02:47:47;44.10;;;22.20;;
79496;SDS011;75160;53.138;18.020;2024-02-26T02:48:49;45.90;;;24.20;;
79496;SDS011;75160;53.138;18.020;2024-02-26T02:49:51;47.90;;;25.30;;
79496;SDS011;75160;53.138;18.020;2024-02-26T02:50:52;45.60;;;24.30;;
79496;SDS011;75160;53.138;18.020;2024-02-26T02:51:54;46.70;;;24.90;;
79496;SDS011;75160;53.138;18.020;2024-02-26T02:52:56;44.40;;;23.70;;
79496;SDS011;75160;53.138;18.020;2024-02-26T02:53:58;46.60;;;23.80;;
79496;SDS011;75160;53.138;18.020;2024-02-26T02:55:00;49.40;;;25.00;;
79496;SDS011;75160;53.138;18.020;2024-02-26T02:56:02;50.10;;;25.00;;
79496;SDS011;75160;53.138;18.020;2024-02-26T02:57:04;47.90;;;25.90;;
79496;SDS011;75160;53.138;18.020;2024-02-26T02:58:06;44.70;;;24.60;;
79496;SDS011;75160;53.138;18.020;2024-02-26T02:59:07;52.10;;;24.40;;
79496;SDS011;75160;53.138;18.020;2024-02-26T03:00:10;44.10;;;23.00;;
79496;SDS011;75160;53.138;18.020;2024-02-26T03:01:13;43.70;;;23.20;;
79496;SDS011;75160;53.138;18.020;2024-02-26T03:02:15;49.30;;;25.10;;
79496;SDS011;75160;53.138;18.020;2024-02-26T03:03:17;43.50;;;21.30;;
79496;SDS011;75160;53.138;18.020;2024-02-26T03:04:18;45.20;;;22.80;;
79496;SDS011;75160;53.138;18.020;2024-02-26T03:05:20;43.90;;;24.90;;
79496;SDS011;75160;53.138;18.020;2024-02-26T03:06:22;46.70;;;23.80;;
79496;SDS011;75160;53.138;18.020;2024-02-26T03:07:24;42.40;;;24.80;;
79496;SDS011;75160;53.138;18.020;2024-02-26T03:08:26;44.50;;;24.20;;
79496;SDS011;75160;53.138;18.020;2024-02-26T03:09:28;46.70;;;24.20;;
79496;SDS011;75160;53.138;18.020;2024-02-26T03:10:29;47.10;;;25.30;;
79496;SDS011;75160;53.138;18.020;2024-02-26T03:11:31;44.80;;;23.50;;
79496;SDS011;75160;53.138;18.020;2024-02-26T03:12:34;44.80;;;23.20;;
79496;SDS011;75160;53.138;18.020;2024-02-26T03:13:36;44.60;;;23.60;;
79496;SDS011;75160;53.138;18.020;2024-02-26T03:14:37;44.50;;;23.60;;
79496;SDS011;75160;53.138;18.020;2024-02-26T03:15:39;42.60;;;23.60;;
79496;SDS011;75160;53.138;18.020;2024-02-26T03:16:41;41.90;;;22.60;;
79496;SDS011;75160;53.138;18.020;2024-02-26T03:17:43;41.90;;;23.40;;
79496;SDS011;75160;53.138;18.020;2024-02-26T03:18:45;47.10;;;23.10;;
79496;SDS011;75160;53.138;18.020;2024-02-26T03:19:46;45.80;;;23.80;;
79496;SDS011;75160;53.138;18.020;2024-02-26T03:20:49;44.10;;;22.80;;
79496;SDS011;75160;53.138;18.020;2024-02-26T03:21:51;41.40;;;22.50;;
79496;SDS011;75160;53.138;18.020;2024-02-26T03:22:53;48.50;;;24.80;;
79496;SDS011;75160;53.138;18.020;2024-02-26T03:23:55;44.00;;;23.30;;
79496;SDS011;75160;53.138;18.020;2024-02-26T03:24:57;38.90;;;22.20;;
79496;SDS011;75160;53.138;18.020;2024-02-26T03:25:58;39.20;;;22.50;;
79496;SDS011;75160;53.138;18.020;2024-02-26T03:27:00;44.60;;;25.90;;
79496;SDS011;75160;53.138;18.020;2024-02-26T03:28:02;47.20;;;23.70;;
79496;SDS011;75160;53.138;18.020;2024-02-26T03:29:05;46.20;;;25.20;;
79496;SDS011;75160;53.138;18.020;2024-02-26T03:30:07;48.00;;;23.60;;
79496;SDS011;75160;53.138;18.020;2024-02-26T03:31:10;45.90;;;23.60;;
79496;SDS011;75160;53.138;18.020;2024-02-26T03:32:12;43.50;;;23.30;;
79496;SDS011;75160;53.138;18.020;2024-02-26T03:33:14;48.80;;;22.90;;
79496;SDS011;75160;53.138;18.020;2024-02-26T03:34:15;39.30;;;21.80;;
79496;SDS011;75160;53.138;18.020;2024-02-26T03:35:18;40.60;;;22.60;;
79496;SDS011;75160;53.138;18.020;2024-02-26T03:36:20;41.40;;;24.20;;
79496;SDS011;75160;53.138;18.020;2024-02-26T03:37:23;41.90;;;23.00;;
79496;SDS011;75160;53.138;18.020;2024-02-26T03:38:24;40.70;;;22.60;;
79496;SDS011;75160;53.138;18.020;2024-02-26T03:39:26;40.60;;;23.00;;
79496;SDS011;75160;53.138;18.020;2024-02-26T03:40:28;40.70;;;22.70;;
79496;SDS011;75160;53.138;18.020;2024-02-26T03:41:30;42.90;;;22.50;;
79496;SDS011;75160;53.138;18.020;2024-02-26T03:42:33;39.60;;;22.50;;
79496;SDS011;75160;53.138;18.020;2024-02-26T03:43:35;43.10;;;24.30;;
79496;SDS011;75160;53.138;18.020;2024-02-26T03:44:37;44.60;;;22.80;;
79496;SDS011;75160;53.138;18.020;2024-02-26T03:45:38;43.50;;;22.80;;
79496;SDS011;75160;53.138;18.020;2024-02-26T03:46:41;45.30;;;23.30;;
79496;SDS011;75160;53.138;18.020;2024-02-26T03:47:44;42.00;;;24.00;;
79496;SDS011;75160;53.138;18.020;2024-02-26T03:48:46;40.90;;;23.70;;
79496;SDS011;75160;53.138;18.020;2024-02-26T03:49:47;43.30;;;24.40;;
79496;SDS011;75160;53.138;18.020;2024-02-26T03:50:49;44.00;;;23.90;;
79496;SDS011;75160;53.138;18.020;2024-02-26T03:51:51;44.60;;;24.80;;
79496;SDS011;75160;53.138;18.020;2024-02-26T03:52:53;45.50;;;24.40;;
79496;SDS011;75160;53.138;18.020;2024-02-26T03:53:55;42.70;;;23.30;;
79496;SDS011;75160;53.138;18.020;2024-02-26T03:54:57;41.00;;;23.30;;
79496;SDS011;75160;53.138;18.020;2024-02-26T03:56:03;40.00;;;23.10;;
79496;SDS011;75160;53.138;18.020;2024-02-26T03:57:06;43.30;;;23.70;;
79496;SDS011;75160;53.138;18.020;2024-02-26T03:58:07;40.30;;;23.10;;
79496;SDS011;75160;53.138;18.020;2024-02-26T03:59:10;48.80;;;28.10;;
79496;SDS011;75160;53.138;18.020;2024-02-26T04:00:13;59.90;;;33.10;;
79496;SDS011;75160;53.138;18.020;2024-02-26T04:01:15;48.70;;;26.70;;
79496;SDS011;75160;53.138;18.020;2024-02-26T04:02:17;44.90;;;25.50;;
79496;SDS011;75160;53.138;18.020;2024-02-26T04:03:21;41.90;;;22.60;;
79496;SDS011;75160;53.138;18.020;2024-02-26T04:04:22;41.50;;;22.20;;
79496;SDS011;75160;53.138;18.020;2024-02-26T04:05:24;38.10;;;22.20;;
79496;SDS011;75160;53.138;18.020;2024-02-26T04:06:26;40.80;;;22.60;;
79496;SDS011;75160;53.138;18.020;2024-02-26T04:07:27;36.70;;;20.50;;
79496;SDS011;75160;53.138;18.020;2024-02-26T04:08:29;43.30;;;23.60;;
79496;SDS011;75160;53.138;18.020;2024-02-26T04:09:32;37.40;;;20.50;;
79496;SDS011;75160;53.138;18.020;2024-02-26T04:10:34;41.70;;;22.00;;
79496;SDS011;75160;53.138;18.020;2024-02-26T04:11:42;45.50;;;23.00;;
79496;SDS011;75160;53.138;18.020;2024-02-26T04:12:46;45.00;;;23.90;;
79496;SDS011;75160;53.138;18.020;2024-02-26T04:13:48;41.70;;;23.40;;
79496;SDS011;75160;53.138;18.020;2024-02-26T04:14:53;43.90;;;22.70;;
79496;SDS011;75160;53.138;18.020;2024-02-26T04:15:55;43.70;;;23.80;;
79496;SDS011;75160;53.138;18.020;2024-02-26T04:16:57;40.70;;;22.20;;
79496;SDS011;75160;53.138;18.020;2024-02-26T04:17:59;43.10;;;23.60;;
79496;SDS011;75160;53.138;18.020;2024-02-26T04:19:01;45.10;;;24.00;;
79496;SDS011;75160;53.138;18.020;2024-02-26T04:20:04;45.50;;;24.30;;
79496;SDS011;75160;53.138;18.020;2024-02-26T04:21:07;37.10;;;20.90;;
79496;SDS011;75160;53.138;18.020;2024-02-26T04:22:09;41.60;;;22.90;;
79496;SDS011;75160;53.138;18.020;2024-02-26T04:23:12;38.40;;;21.10;;
79496;SDS011;75160;53.138;18.020;2024-02-26T04:24:14;37.00;;;20.80;;
79496;SDS011;75160;53.138;18.020;2024-02-26T04:25:16;41.50;;;21.60;;
79496;SDS011;75160;53.138;18.020;2024-02-26T04:26:17;30.90;;;17.20;;
79496;SDS011;75160;53.138;18.020;2024-02-26T04:27:19;28.70;;;16.10;;
79496;SDS011;75160;53.138;18.020;2024-02-26T04:28:21;32.10;;;19.00;;
79496;SDS011;75160;53.138;18.020;2024-02-26T04:29:23;39.20;;;21.30;;
79496;SDS011;75160;53.138;18.020;2024-02-26T04:30:24;38.50;;;21.00;;
79496;SDS011;75160;53.138;18.020;2024-02-26T04:31:26;31.60;;;18.40;;
79496;SDS011;75160;53.138;18.020;2024-02-26T04:32:28;34.20;;;19.20;;
79496;SDS011;75160;53.138;18.020;2024-02-26T04:33:34;39.00;;;21.30;;
79496;SDS011;75160;53.138;18.020;2024-02-26T04:34:36;41.10;;;22.50;;
79496;SDS011;75160;53.138;18.020;2024-02-26T04:35:38;39.90;;;21.60;;
79496;SDS011;75160;53.138;18.020;2024-02-26T04:36:40;35.60;;;20.60;;
79496;SDS011;75160;53.138;18.020;2024-02-26T04:37:42;36.60;;;21.00;;
79496;SDS011;75160;53.138;18.020;2024-02-26T04:38:44;35.90;;;20.60;;
79496;SDS011;75160;53.138;18.020;2024-02-26T04:39:46;36.20;;;21.20;;
79496;SDS011;75160;53.138;18.020;2024-02-26T04:40:48;37.90;;;20.90;;
79496;SDS011;75160;53.138;18.020;2024-02-26T04:41:49;34.60;;;21.20;;
79496;SDS011;75160;53.138;18.020;2024-02-26T04:42:51;27.30;;;17.20;;
79496;SDS011;75160;53.138;18.020;2024-02-26T04:43:53;34.30;;;18.80;;
79496;SDS011;75160;53.138;18.020;2024-02-26T04:44:55;32.50;;;20.60;;
79496;SDS011;75160;53.138;18.020;2024-02-26T04:45:57;35.00;;;18.20;;
79496;SDS011;75160;53.138;18.020;2024-02-26T04:46:58;36.60;;;19.50;;
79496;SDS011;75160;53.138;18.020;2024-02-26T04:48:00;35.70;;;18.00;;
79496;SDS011;75160;53.138;18.020;2024-02-26T04:49:02;31.20;;;19.20;;
79496;SDS011;75160;53.138;18.020;2024-02-26T04:50:05;38.50;;;20.40;;
79496;SDS011;75160;53.138;18.020;2024-02-26T04:51:07;31.70;;;18.80;;
79496;SDS011;75160;53.138;18.020;2024-02-26T04:52:09;33.80;;;19.70;;
79496;SDS011;75160;53.138;18.020;2024-02-26T04:53:11;34.10;;;19.70;;
79496;SDS011;75160;53.138;18.020;2024-02-26T04:54:12;37.90;;;21.50;;
79496;SDS011;75160;53.138;18.020;2024-02-26T04:55:14;34.10;;;20.00;;
79496;SDS011;75160;53.138;18.020;2024-02-26T04:56:16;37.20;;;20.60;;
79496;SDS011;75160;53.138;18.020;2024-02-26T04:57:18;37.70;;;21.20;;
79496;SDS011;75160;53.138;18.020;2024-02-26T04:58:20;35.10;;;19.20;;
79496;SDS011;75160;53.138;18.020;2024-02-26T04:59:21;35.00;;;19.70;;
79496;SDS011;75160;53.138;18.020;2024-02-26T05:00:23;33.60;;;20.10;;
79496;SDS011;75160;53.138;18.020;2024-02-26T05:01:25;37.10;;;20.00;;
79496;SDS011;75160;53.138;18.020;2024-02-26T05:02:27;31.70;;;18.50;;
79496;SDS011;75160;53.138;18.020;2024-02-26T05:03:28;32.60;;;19.40;;
79496;SDS011;75160;53.138;18.020;2024-02-26T05:04:30;34.40;;;19.30;;
79496;SDS011;75160;53.138;18.020;2024-02-26T05:05:32;34.00;;;19.30;;
79496;SDS011;75160;53.138;18.020;2024-02-26T05:06:34;31.40;;;19.50;;
79496;SDS011;75160;53.138;18.020;2024-02-26T05:07:42;34.70;;;19.40;;
79496;SDS011;75160;53.138;18.020;2024-02-26T05:08:45;32.40;;;18.80;;
79496;SDS011;75160;53.138;18.020;2024-02-26T05:09:47;33.20;;;18.60;;
79496;SDS011;75160;53.138;18.020;2024-02-26T05:10:51;30.60;;;17.50;;
79496;SDS011;75160;53.138;18.020;2024-02-26T05:11:52;33.70;;;19.10;;
79496;SDS011;75160;53.138;18.020;2024-02-26T05:12:54;31.10;;;18.30;;
79496;SDS011;75160;53.138;18.020;2024-02-26T05:13:57;31.20;;;19.40;;
79496;SDS011;75160;53.138;18.020;2024-02-26T05:14:58;32.60;;;19.70;;
79496;SDS011;75160;53.138;18.020;2024-02-26T05:16:00;37.00;;;20.40;;
79496;SDS011;75160;53.138;18.020;2024-02-26T05:17:02;37.10;;;20.50;;
79496;SDS011;75160;53.138;18.020;2024-02-26T05:18:04;33.90;;;20.10;;
79496;SDS011;75160;53.138;18.020;2024-02-26T05:19:06;35.10;;;20.90;;
79496;SDS011;75160;53.138;18.020;2024-02-26T05:20:08;35.30;;;20.30;;
79496;SDS011;75160;53.138;18.020;2024-02-26T05:21:10;34.30;;;19.90;;
79496;SDS011;75160;53.138;18.020;2024-02-26T05:22:12;35.80;;;20.20;;
79496;SDS011;75160;53.138;18.020;2024-02-26T05:23:14;36.10;;;19.40;;
79496;SDS011;75160;53.138;18.020;2024-02-26T05:24:16;34.00;;;19.50;;
79496;SDS011;75160;53.138;18.020;2024-02-26T05:25:18;31.80;;;20.30;;
79496;SDS011;75160;53.138;18.020;2024-02-26T05:26:21;32.70;;;20.80;;
79496;SDS011;75160;53.138;18.020;2024-02-26T05:27:24;33.80;;;19.60;;
79496;SDS011;75160;53.138;18.020;2024-02-26T05:28:25;33.00;;;19.80;;
79496;SDS011;75160;53.138;18.020;2024-02-26T05:29:27;34.10;;;20.20;;
79496;SDS011;75160;53.138;18.020;2024-02-26T05:30:29;36.20;;;20.70;;
79496;SDS011;75160;53.138;18.020;2024-02-26T05:31:31;37.90;;;20.60;;
79496;SDS011;75160;53.138;18.020;2024-02-26T05:32:32;38.00;;;20.80;;
79496;SDS011;75160;53.138;18.020;2024-02-26T05:33:34;34.70;;;19.70;;
79496;SDS011;75160;53.138;18.020;2024-02-26T05:34:36;33.20;;;19.50;;
79496;SDS011;75160;53.138;18.020;2024-02-26T05:35:39;34.60;;;20.30;;
79496;SDS011;75160;53.138;18.020;2024-02-26T05:36:41;32.60;;;19.30;;
79496;SDS011;75160;53.138;18.020;2024-02-26T05:37:43;33.60;;;19.40;;
79496;SDS011;75160;53.138;18.020;2024-02-26T05:38:45;30.60;;;18.00;;
79496;SDS011;75160;53.138;18.020;2024-02-26T05:39:47;32.30;;;18.70;;
79496;SDS011;75160;53.138;18.020;2024-02-26T05:40:49;34.50;;;18.60;;
79496;SDS011;75160;53.138;18.020;2024-02-26T05:41:53;31.70;;;18.40;;
79496;SDS011;75160;53.138;18.020;2024-02-26T05:42:55;29.00;;;18.80;;
79496;SDS011;75160;53.138;18.020;2024-02-26T05:43:58;32.60;;;18.60;;
79496;SDS011;75160;53.138;18.020;2024-02-26T05:45:00;32.50;;;19.40;;
79496;SDS011;75160;53.138;18.020;2024-02-26T05:46:07;30.60;;;17.60;;
79496;SDS011;75160;53.138;18.020;2024-02-26T05:47:09;34.20;;;19.10;;
79496;SDS011;75160;53.138;18.020;2024-02-26T05:48:11;31.50;;;18.30;;
79496;SDS011;75160;53.138;18.020;2024-02-26T05:49:13;30.40;;;18.90;;
79496;SDS011;75160;53.138;18.020;2024-02-26T05:50:15;32.20;;;20.20;;
79496;SDS011;75160;53.138;18.020;2024-02-26T05:51:18;31.30;;;19.40;;
79496;SDS011;75160;53.138;18.020;2024-02-26T05:52:20;34.40;;;20.00;;
79496;SDS011;75160;53.138;18.020;2024-02-26T05:53:21;38.10;;;21.10;;
79496;SDS011;75160;53.138;18.020;2024-02-26T05:54:23;32.90;;;20.20;;
79496;SDS011;75160;53.138;18.020;2024-02-26T05:55:25;35.60;;;20.40;;
79496;SDS011;75160;53.138;18.020;2024-02-26T05:56:27;33.60;;;19.50;;
79496;SDS011;75160;53.138;18.020;2024-02-26T05:57:28;40.30;;;22.60;;
79496;SDS011;75160;53.138;18.020;2024-02-26T05:58:30;32.80;;;19.10;;